»·PEaware :: N3141P KSBA-KSAN

N3141P :: KSBA-KSAN

FLIGHT INFORMATION

Flight Status: Arrived
Operator: Privately registered:
United States
More flights under this callsign
Pilot: Andrew N. (12823)
Aircraft: BEECH AIRCRAFT BEECH AIRLINER
(B190)
More flights by this aircraft type
Origin: KSBA Santa Barbara Mun
United States
Destination: KSAN San Diego Intl-Lindbergh
United States
More flights between these airports :: More routes between these airports
Route: KWANG VTU V208 SXC V208 LAX118 CARDI MZB320 MZB
File this flight plan on PilotEdge
Remarks:
Altitude:
(Current/Filed)
9,000ft
Speed:
(Current/Filed)
200kts
Departed: 29-Dec-16 10:49 PM
Arrived: 29-Dec-16 11:42 PM
Distance/Time
Traveled:
167nm/0:53
Distance/Time
To Go:
Arrived

Flight Plot

Page will automatically refresh every two minutes.


Map Options




Map Legend


Flown Route
Filed Route
Departure Airport
Arrival Airport
Navaid (VOR, NDB)
Fix

Horizontal Profiles

Position Reports

Time Latitude Longitude Heading Altitude Ground
Speed
29-Dec-16 22:30 34.432547 -119.835147 71 15ft 0kts
29-Dec-16 22:32 34.432547 -119.835147 71 15ft 0kts
29-Dec-16 22:32 34.432547 -119.835147 71 15ft 0kts
29-Dec-16 22:34 34.432547 -119.835147 71 15ft 0kts
29-Dec-16 22:35 34.432547 -119.835147 71 15ft 0kts
29-Dec-16 22:35 34.432547 -119.835147 71 15ft 0kts
29-Dec-16 22:36 34.432547 -119.835147 71 15ft 0kts
29-Dec-16 22:38 34.432547 -119.835147 71 15ft 0kts
29-Dec-16 22:39 34.432547 -119.835147 71 15ft 0kts
29-Dec-16 22:39 34.432547 -119.835147 71 15ft 0kts
29-Dec-16 22:41 34.432547 -119.835147 71 15ft 0kts
29-Dec-16 22:41 34.432547 -119.835147 71 15ft 0kts
29-Dec-16 22:43 34.432547 -119.835147 71 15ft 0kts
29-Dec-16 22:43 34.432547 -119.835147 71 15ft 0kts
29-Dec-16 22:45 34.431461 -119.835342 179 15ft 14kts
29-Dec-16 22:45 34.428724 -119.835251 176 12ft 0kts
29-Dec-16 22:46 34.428566 -119.835238 176 12ft 6kts
29-Dec-16 22:47 34.427867 -119.835628 267 12ft 0kts
29-Dec-16 22:48 34.427053 -119.861103 262 833ft 110kts
29-Dec-16 22:49 34.423551 -119.913590 267 3685ft 170kts
29-Dec-16 22:50 34.400937 -119.954539 159 6404ft 177kts
29-Dec-16 22:51 34.395276 -119.902148 82 8053ft 203kts
29-Dec-16 22:52 34.392768 -119.845463 103 8857ft 215kts
29-Dec-16 22:53 34.376555 -119.770587 109 8997ft 247kts
29-Dec-16 22:54 34.357146 -119.695191 110 8994ft 255kts
29-Dec-16 22:55 34.335352 -119.612678 110 8990ft 259kts
29-Dec-16 22:56 34.313296 -119.529702 110 8989ft 259kts
29-Dec-16 22:57 34.282990 -119.451175 118 8989ft 258kts
29-Dec-16 22:58 34.250839 -119.373890 118 8989ft 258kts
29-Dec-16 22:59 34.232506 -119.329908 119 8990ft 258kts
29-Dec-16 23:00 34.202159 -119.257238 119 8990ft 258kts
29-Dec-16 23:01 34.170202 -119.180287 119 9004ft 254kts
29-Dec-16 23:02 34.138778 -119.105851 119 8996ft 248kts
29-Dec-16 23:03 34.100214 -119.036825 145 8995ft 253kts
29-Dec-16 23:04 34.042841 -118.987536 145 8989ft 254kts
29-Dec-16 23:05 33.985099 -118.938018 145 8988ft 254kts
29-Dec-16 23:06 33.927536 -118.888739 145 8987ft 254kts
29-Dec-16 23:07 33.877759 -118.846199 145 8992ft 254kts
29-Dec-16 23:08 33.820114 -118.797007 145 8991ft 255kts
29-Dec-16 23:09 33.762393 -118.747833 145 8991ft 255kts
29-Dec-16 23:11 33.704930 -118.698976 145 8989ft 251kts
29-Dec-16 23:12 33.648143 -118.650757 145 8990ft 249kts
29-Dec-16 23:13 33.591733 -118.602931 145 8989ft 249kts
29-Dec-16 23:14 33.535017 -118.554933 145 8952ft 249kts
29-Dec-16 23:15 33.480264 -118.508664 145 8922ft 239kts
29-Dec-16 23:16 33.425259 -118.462129 145 8947ft 250kts
29-Dec-16 23:17 33.374869 -118.406972 106 8977ft 255kts
29-Dec-16 23:18 33.363882 -118.334075 102 8955ft 259kts
29-Dec-16 23:19 33.352667 -118.251547 102 8953ft 259kts
29-Dec-16 23:20 33.341202 -118.166444 102 8953ft 259kts
29-Dec-16 23:21 33.329717 -118.081628 102 8953ft 259kts
29-Dec-16 23:22 33.318126 -117.996512 102 8953ft 259kts
29-Dec-16 23:23 33.306441 -117.911667 103 8953ft 259kts
29-Dec-16 23:24 33.294647 -117.835136 104 8952ft 259kts
29-Dec-16 23:25 33.279866 -117.751085 105 8952ft 258kts
29-Dec-16 23:26 33.271011 -117.665894 100 8952ft 260kts
29-Dec-16 23:27 33.259520 -117.581428 117 8919ft 257kts
29-Dec-16 23:28 33.213246 -117.518325 134 8954ft 253kts
29-Dec-16 23:29 33.165095 -117.457641 134 8952ft 252kts
29-Dec-16 23:30 33.111160 -117.407611 154 8747ft 232kts
29-Dec-16 23:31 33.057542 -117.377938 154 7585ft 205kts
29-Dec-16 23:32 33.005512 -117.349042 154 6383ft 215kts
29-Dec-16 23:33 32.951530 -117.319099 154 5198ft 219kts
29-Dec-16 23:34 32.899704 -117.290388 154 4958ft 194kts
29-Dec-16 23:35 32.857703 -117.267140 154 4952ft 153kts
29-Dec-16 23:36 32.819990 -117.246302 154 3699ft 159kts
29-Dec-16 23:37 32.782997 -117.222895 149 1921ft 133kts
29-Dec-16 23:38 32.754115 -117.196291 115 1366ft 152kts
29-Dec-16 23:39 32.746854 -117.144072 99 1182ft 164kts
29-Dec-16 23:40 32.725156 -117.135283 256 701ft 151kts
29-Dec-16 23:41 32.732298 -117.184241 279 31ft 131kts
29-Dec-16 23:42 32.730351 -117.192886 150 18ft 0kts

Navigation Log

Ident Type
1. KSBA Airport
2. KWANG Fix
3. VTU Navaid
4. WEEZL Fix
5. SXC Navaid
6. CARDI Fix
7. MZB Navaid
8. KSAN Airport